Time;durP1;ratioP1;P1;durP2;ratioP2;P2;SDS_P1;SDS_P2;PMS_P1;PMS_P2;Temp;Humidity;BMP_temperature;BMP_pressure;BME280_temperature;BME280_humidity;BME280_pressure;Samples;Min_cycle;Max_cycle;Signal;HPM_P1;HPM_P2
2023/09/24 00:01:44;;;;;;;4.68;1.60;;;14.40;99.90;;;;;;5037097;28;20100;-66
2023/09/24 00:04:10;;;;;;;5.95;1.60;;;14.40;99.90;;;;;;5036696;28;20064;-66
2023/09/24 00:06:36;;;;;;;3.30;1.50;;;14.40;99.90;;;;;;5037116;28;20018;-66
2023/09/24 00:09:02;;;;;;;4.65;1.13;;;14.40;99.90;;;;;;5036944;28;20071;-67
2023/09/24 00:11:28;;;;;;;3.78;1.50;;;14.40;99.90;;;;;;5036392;28;20108;-66
2023/09/24 00:13:54;;;;;;;4.53;1.52;;;14.30;99.90;;;;;;5036928;28;20061;-67
2023/09/24 00:16:20;;;;;;;4.15;1.58;;;14.30;99.90;;;;;;5047216;28;20021;-66
2023/09/24 00:18:46;;;;;;;3.67;1.48;;;14.30;99.90;;;;;;5036600;28;20029;-66
2023/09/24 00:21:12;;;;;;;2.03;1.20;;;14.20;99.90;;;;;;5036070;28;20026;-66
2023/09/24 00:23:39;;;;;;;3.92;1.42;;;14.20;99.90;;;;;;5040671;28;20497;-66
2023/09/24 00:26:05;;;;;;;2.95;1.45;;;14.20;99.90;;;;;;5040898;28;20025;-66
2023/09/24 00:28:31;;;;;;;4.68;1.50;;;14.10;99.90;;;;;;5040462;28;20021;-66
2023/09/24 00:30:58;;;;;;;4.43;1.30;;;14.10;99.90;;;;;;5040840;28;20083;-66
2023/09/24 00:33:24;;;;;;;4.22;1.70;;;14.10;99.90;;;;;;5040577;28;20014;-66
2023/09/24 00:35:51;;;;;;;4.22;1.60;;;14.00;99.90;;;;;;5040683;28;20079;-66
2023/09/24 00:38:20;;;;;;;3.35;1.33;;;14.00;99.90;;;;;;5040532;28;20025;-67
2023/09/24 00:40:46;;;;;;;3.42;1.30;;;14.00;99.90;;;;;;5039000;28;20029;-66
2023/09/24 00:43:28;;;;;;;3.88;1.48;;;13.90;99.90;;;;;;5040006;28;20078;-66
2023/09/24 00:45:59;;;;;;;2.55;1.25;;;13.80;99.90;;;;;;5040223;28;20048;-66
2023/09/24 00:48:29;;;;;;;5.10;1.30;;;13.90;99.90;;;;;;5038873;28;20032;-67
2023/09/24 00:51:00;;;;;;;2.95;1.33;;;13.80;99.90;;;;;;5040380;28;20052;-66
2023/09/24 00:53:30;;;;;;;2.92;1.40;;;13.80;99.90;;;;;;5040035;28;20032;-66
2023/09/24 00:55:57;;;;;;;3.50;1.42;;;13.80;99.90;;;;;;5041238;28;20021;-66
2023/09/24 00:58:26;;;;;;;2.72;1.45;;;13.70;99.90;;;;;;5039891;28;20053;-67
2023/09/24 01:00:54;;;;;;;3.38;1.50;;;13.70;99.90;;;;;;5040034;28;20029;-66
2023/09/24 01:03:24;;;;;;;4.30;1.67;;;13.60;99.90;;;;;;5039917;28;20033;-66
2023/09/24 01:05:51;;;;;;;4.47;1.80;;;13.60;99.90;;;;;;5038688;28;20032;-66
2023/09/24 01:08:21;;;;;;;3.00;1.65;;;13.60;99.90;;;;;;5038781;28;20848;-67
2023/09/24 01:10:48;;;;;;;3.95;1.65;;;13.60;99.90;;;;;;5039832;28;20076;-66
2023/09/24 01:13:24;;;;;;;3.80;1.83;;;13.60;99.90;;;;;;5039602;28;20096;-67
2023/09/24 01:15:52;;;;;;;5.22;2.00;;;13.50;99.90;;;;;;5048740;28;20040;-66
2023/09/24 01:18:19;;;;;;;3.75;1.50;;;13.50;99.90;;;;;;5040004;28;20447;-66
2023/09/24 01:20:46;;;;;;;3.30;1.60;;;13.50;99.90;;;;;;5039965;28;20036;-66
2023/09/24 01:23:14;;;;;;;3.40;1.50;;;13.50;99.90;;;;;;5038418;28;20025;-66
2023/09/24 01:25:40;;;;;;;3.50;1.65;;;13.50;99.90;;;;;;5039598;28;20033;-66
2023/09/24 01:28:07;;;;;;;3.88;1.55;;;13.50;99.90;;;;;;5039369;28;20053;-67
2023/09/24 01:30:34;;;;;;;4.30;1.70;;;13.50;99.90;;;;;;5039576;28;20025;-66
2023/09/24 01:33:00;;;;;;;3.65;1.63;;;13.50;99.90;;;;;;5039100;28;20371;-66
2023/09/24 01:35:29;;;;;;;3.30;1.83;;;13.50;99.90;;;;;;5039093;28;20387;-66
2023/09/24 01:38:06;;;;;;;4.78;1.90;;;13.40;99.90;;;;;;5039570;28;20030;-66
2023/09/24 01:40:38;;;;;;;3.65;1.98;;;13.40;99.90;;;;;;5037996;28;20029;-66
2023/09/24 01:43:08;;;;;;;5.78;1.88;;;13.30;99.90;;;;;;5039050;28;20022;-66
2023/09/24 01:45:34;;;;;;;3.88;2.10;;;13.30;99.90;;;;;;5039591;28;20033;-66
2023/09/24 01:48:02;;;;;;;5.82;2.20;;;13.30;99.90;;;;;;5038902;28;20021;-66
2023/09/24 01:50:29;;;;;;;4.53;1.73;;;13.30;99.90;;;;;;5039347;28;20482;-66
2023/09/24 01:52:57;;;;;;;5.38;2.05;;;13.30;99.90;;;;;;5039056;28;20071;-66
2023/09/24 01:55:27;;;;;;;7.15;1.90;;;13.30;99.90;;;;;;5041130;28;20028;-66
2023/09/24 01:57:53;;;;;;;3.90;1.73;;;13.20;99.90;;;;;;5038844;28;20119;-66
2023/09/24 02:00:23;;;;;;;3.97;1.42;;;13.20;99.90;;;;;;5038964;28;20062;-66
2023/09/24 02:02:54;;;;;;;4.50;1.80;;;13.20;99.90;;;;;;5037588;28;20029;-66
2023/09/24 02:05:20;;;;;;;3.65;1.60;;;13.20;99.90;;;;;;5039099;28;20444;-67
2023/09/24 02:07:49;;;;;;;3.22;1.40;;;13.20;99.90;;;;;;5037607;28;20052;-66
2023/09/24 02:10:18;;;;;;;4.25;1.63;;;13.20;99.90;;;;;;5038752;28;20025;-66
2023/09/24 02:12:46;;;;;;;2.97;1.40;;;13.20;99.90;;;;;;5038536;28;20014;-66
2023/09/24 02:15:12;;;;;;;3.05;1.48;;;13.20;99.90;;;;;;5045682;28;20103;-66
2023/09/24 02:17:42;;;;;;;3.95;1.90;;;13.20;99.90;;;;;;5039715;28;20036;-66
2023/09/24 02:20:35;;;;;;;3.22;1.60;;;13.20;99.90;;;;;;5038643;28;20159;-67
2023/09/24 02:23:00;;;;;;;3.08;1.23;;;13.20;99.90;;;;;;5038380;28;20414;-67
2023/09/24 02:25:31;;;;;;;3.92;1.55;;;13.20;99.90;;;;;;5037003;28;20037;-66
2023/09/24 02:27:58;;;;;;;3.17;1.70;;;13.20;99.90;;;;;;5038425;28;20024;-66
2023/09/24 02:30:27;;;;;;;3.72;1.58;;;13.20;99.90;;;;;;5038345;28;20367;-67
2023/09/24 02:32:52;;;;;;;5.68;1.85;;;13.20;99.90;;;;;;5038562;28;20018;-66
2023/09/24 02:35:18;;;;;;;3.42;1.40;;;13.20;99.90;;;;;;5036973;28;20033;-66
2023/09/24 02:37:48;;;;;;;4.82;1.80;;;13.20;99.90;;;;;;5037248;28;20018;-66
2023/09/24 02:40:20;;;;;;;2.63;1.23;;;13.20;99.90;;;;;;5038082;28;20021;-66
2023/09/24 02:42:47;;;;;;;4.30;1.58;;;13.20;99.90;;;;;;5037991;28;20029;-66
2023/09/24 02:45:15;;;;;;;3.38;1.50;;;13.20;99.90;;;;;;5037398;28;20045;-67
2023/09/24 02:47:45;;;;;;;3.72;1.50;;;13.20;99.90;;;;;;5036511;28;20044;-66
2023/09/24 02:50:15;;;;;;;4.95;1.52;;;13.20;99.90;;;;;;5036818;28;20021;-67
2023/09/24 02:52:45;;;;;;;3.03;1.60;;;13.20;99.90;;;;;;5038073;28;20022;-66
2023/09/24 02:55:13;;;;;;;4.05;1.60;;;13.20;99.90;;;;;;5040199;28;20394;-66
2023/09/24 02:57:39;;;;;;;3.90;1.55;;;13.20;99.90;;;;;;5037634;28;20072;-66
2023/09/24 03:00:21;;;;;;;3.60;1.60;;;13.20;99.90;;;;;;5037897;28;20029;-67
2023/09/24 03:02:47;;;;;;;3.20;1.58;;;13.20;99.90;;;;;;5036505;28;20021;-66
2023/09/24 03:05:20;;;;;;;3.15;1.60;;;13.20;99.90;;;;;;5037756;28;20029;-66
2023/09/24 03:07:50;;;;;;;4.13;1.65;;;13.20;99.90;;;;;;5036455;28;20379;-66
2023/09/24 03:10:17;;;;;;;3.70;1.98;;;13.20;99.90;;;;;;5037687;28;20029;-66
2023/09/24 03:12:43;;;;;;;4.68;1.73;;;13.20;99.90;;;;;;5037349;28;20067;-66
2023/09/24 03:15:12;;;;;;;3.90;1.58;;;13.20;99.90;;;;;;5045605;28;20055;-67
2023/09/24 03:17:43;;;;;;;3.65;1.58;;;13.20;99.90;;;;;;5038552;28;20029;-66
2023/09/24 03:20:15;;;;;;;6.68;1.90;;;13.20;99.90;;;;;;5037524;28;20030;-66
2023/09/24 03:23:02;;;;;;;4.25;1.60;;;13.20;99.90;;;;;;5037587;28;20022;-66
2023/09/24 03:25:28;;;;;;;2.47;1.30;;;13.30;99.90;;;;;;5037183;28;20509;-67
2023/09/24 03:27:57;;;;;;;2.83;1.30;;;13.30;99.90;;;;;;5037268;28;20025;-66
2023/09/24 03:30:23;;;;;;;4.28;1.63;;;13.30;99.90;;;;;;5037438;28;20029;-66
2023/09/24 03:32:53;;;;;;;2.10;1.13;;;13.30;99.90;;;;;;5036161;28;20075;-66
2023/09/24 03:35:26;;;;;;;3.17;1.50;;;13.30;99.90;;;;;;5037239;28;20083;-66
2023/09/24 03:37:53;;;;;;;4.93;2.03;;;13.30;99.90;;;;;;5037398;28;20048;-67
2023/09/24 03:40:21;;;;;;;3.28;1.45;;;13.30;99.90;;;;;;5037074;28;20053;-66
2023/09/24 03:42:47;;;;;;;4.63;1.50;;;13.30;99.90;;;;;;5036843;28;20486;-67
2023/09/24 03:45:17;;;;;;;4.00;1.80;;;13.30;99.90;;;;;;5037142;28;20041;-66
2023/09/24 03:47:43;;;;;;;5.07;1.50;;;13.30;99.90;;;;;;5036892;28;20021;-66
2023/09/24 03:50:14;;;;;;;3.63;1.55;;;13.30;99.90;;;;;;5037094;28;20048;-66
2023/09/24 03:52:48;;;;;;;4.22;1.35;;;13.30;99.90;;;;;;5037273;28;20105;-66
2023/09/24 03:55:19;;;;;;;4.40;1.50;;;13.30;99.90;;;;;;5039220;28;20368;-66
2023/09/24 03:57:45;;;;;;;2.67;1.48;;;13.30;99.90;;;;;;5036798;28;20050;-66
2023/09/24 04:00:11;;;;;;;3.60;1.55;;;13.30;99.90;;;;;;5036850;28;20459;-66
2023/09/24 04:02:39;;;;;;;3.40;1.38;;;13.30;99.90;;;;;;5036969;28;20511;-66
2023/09/24 04:05:08;;;;;;;3.88;1.30;;;13.30;99.90;;;;;;5037194;28;20044;-66
2023/09/24 04:07:37;;;;;;;5.40;1.80;;;13.30;99.90;;;;;;5036706;28;20482;-66
2023/09/24 04:10:04;;;;;;;3.60;1.20;;;13.30;99.90;;;;;;5037181;28;20025;-66
2023/09/24 04:12:33;;;;;;;3.35;1.13;;;13.30;99.90;;;;;;5036590;28;20018;-66
2023/09/24 04:15:00;;;;;;;4.10;1.50;;;13.40;99.90;;;;;;5043386;28;20013;-66
2023/09/24 04:17:25;;;;;;;5.40;1.67;;;13.40;99.90;;;;;;5040375;28;20075;-66
2023/09/24 04:19:52;;;;;;;4.88;1.55;;;13.40;99.90;;;;;;5037003;28;20061;-66
2023/09/24 04:22:18;;;;;;;3.53;1.30;;;13.40;99.90;;;;;;5036970;28;20029;-66
2023/09/24 04:24:44;;;;;;;4.53;1.70;;;13.40;99.90;;;;;;5036645;28;20490;-66
2023/09/24 04:27:10;;;;;;;3.30;1.50;;;13.40;99.90;;;;;;5036601;28;20128;-66
2023/09/24 04:29:36;;;;;;;4.75;1.30;;;13.40;99.90;;;;;;5036756;28;20025;-66
2023/09/24 04:32:02;;;;;;;3.58;1.70;;;13.40;99.90;;;;;;5036616;28;20075;-66
2023/09/24 04:34:27;;;;;;;3.92;1.25;;;13.50;99.90;;;;;;5036827;28;20037;-66
2023/09/24 04:36:53;;;;;;;2.25;1.25;;;13.50;99.90;;;;;;5036584;28;20033;-66
2023/09/24 04:39:19;;;;;;;3.63;1.58;;;13.50;99.90;;;;;;5036724;28;20075;-66
2023/09/24 04:41:47;;;;;;;2.75;1.23;;;13.60;99.90;;;;;;5034679;28;20025;-66
2023/09/24 04:44:13;;;;;;;3.38;1.38;;;13.60;99.90;;;;;;5036816;28;20088;-66
2023/09/24 04:46:39;;;;;;;4.40;1.33;;;13.60;99.90;;;;;;5036405;28;20021;-66
2023/09/24 04:49:05;;;;;;;4.80;1.33;;;13.60;99.90;;;;;;5036484;28;20398;-66
2023/09/24 04:51:32;;;;;;;4.90;1.30;;;13.70;99.90;;;;;;5036029;28;20064;-67
2023/09/24 04:54:01;;;;;;;4.15;1.30;;;13.70;99.90;;;;;;5036429;28;20044;-66
2023/09/24 04:56:30;;;;;;;3.97;1.30;;;13.70;99.90;;;;;;5033356;28;20112;-67
2023/09/24 04:58:55;;;;;;;3.63;1.30;;;13.70;99.90;;;;;;5036005;28;20030;-66
2023/09/24 05:01:22;;;;;;;2.97;1.20;;;13.70;99.90;;;;;;5036015;28;20076;-66
2023/09/24 05:03:53;;;;;;;2.40;1.33;;;13.70;99.90;;;;;;5036241;28;20022;-66
2023/09/24 05:06:19;;;;;;;5.05;1.60;;;13.60;99.90;;;;;;5035948;28;20018;-66
2023/09/24 05:08:45;;;;;;;3.92;1.38;;;13.60;99.90;;;;;;5037636;28;20025;-66
2023/09/24 05:11:12;;;;;;;2.90;1.13;;;13.50;99.90;;;;;;5038106;28;20037;-66
2023/09/24 05:13:38;;;;;;;3.30;1.20;;;13.50;99.90;;;;;;5039526;28;20025;-66
2023/09/24 05:16:03;;;;;;;3.85;1.48;;;13.50;99.90;;;;;;5040305;28;20076;-66
2023/09/24 05:18:31;;;;;;;3.13;1.48;;;13.50;99.90;;;;;;5039549;28;20029;-66
2023/09/24 05:20:57;;;;;;;3.70;1.10;;;13.50;99.90;;;;;;5039375;28;20517;-66
2023/09/24 05:23:23;;;;;;;4.28;1.50;;;13.50;99.90;;;;;;5039415;28;20022;-66
2023/09/24 05:25:51;;;;;;;3.15;1.10;;;13.50;99.90;;;;;;5039196;28;20025;-66
2023/09/24 05:28:17;;;;;;;5.13;1.30;;;13.50;99.90;;;;;;5039129;28;20022;-66
2023/09/24 05:30:42;;;;;;;3.55;1.50;;;13.50;99.90;;;;;;5039271;28;20014;-66
2023/09/24 05:33:08;;;;;;;3.35;1.30;;;13.50;99.90;;;;;;5039493;28;20044;-66
2023/09/24 05:35:34;;;;;;;4.40;1.33;;;13.60;99.90;;;;;;5039134;28;20021;-66
2023/09/24 05:37:59;;;;;;;4.90;1.40;;;13.60;99.90;;;;;;5039057;28;20025;-66
2023/09/24 05:40:25;;;;;;;5.95;1.40;;;13.60;99.90;;;;;;5037664;28;20125;-66
2023/09/24 05:42:51;;;;;;;3.72;1.40;;;13.60;99.90;;;;;;5038037;28;20037;-66
2023/09/24 05:45:16;;;;;;;3.75;1.30;;;13.60;99.90;;;;;;5037752;28;20029;-66
2023/09/24 05:47:42;;;;;;;2.88;1.30;;;13.60;99.90;;;;;;5036028;28;20026;-66
2023/09/24 05:50:08;;;;;;;3.03;1.00;;;13.60;99.90;;;;;;5038995;28;20018;-66
2023/09/24 05:52:34;;;;;;;4.05;1.30;;;13.60;99.90;;;;;;5038816;28;20101;-66
2023/09/24 05:55:00;;;;;;;1.85;1.00;;;13.60;99.90;;;;;;5040878;28;20087;-66
2023/09/24 05:57:26;;;;;;;5.38;1.50;;;13.50;99.90;;;;;;5038497;28;20049;-66
2023/09/24 05:59:56;;;;;;;5.97;1.40;;;13.60;99.90;;;;;;5038806;28;20541;-66
2023/09/24 06:02:25;;;;;;;3.55;1.33;;;13.50;99.90;;;;;;5038831;28;20026;-66
2023/09/24 06:04:53;;;;;;;2.88;1.25;;;13.60;99.90;;;;;;5038832;28;20035;-66
2023/09/24 06:07:19;;;;;;;2.65;1.38;;;13.60;99.90;;;;;;5038411;28;20104;-66
2023/09/24 06:09:44;;;;;;;2.95;1.05;;;13.60;99.90;;;;;;5038513;28;20045;-66
2023/09/24 06:12:10;;;;;;;4.45;1.35;;;13.60;99.90;;;;;;5039607;28;20490;-66
2023/09/24 06:14:35;;;;;;;2.50;1.10;;;13.70;99.90;;;;;;5048228;28;20084;-66
2023/09/24 06:17:03;;;;;;;3.63;1.55;;;13.70;99.90;;;;;;5046432;28;20025;-66
2023/09/24 06:19:29;;;;;;;4.50;1.40;;;13.80;99.90;;;;;;5047470;28;20041;-66
2023/09/24 06:21:54;;;;;;;2.78;1.00;;;13.80;99.90;;;;;;5041763;28;20030;-66
2023/09/24 06:24:20;;;;;;;4.28;1.35;;;13.80;99.90;;;;;;5037197;28;20525;-66
2023/09/24 06:26:46;;;;;;;2.78;1.50;;;13.90;99.90;;;;;;5038015;28;20494;-66
2023/09/24 06:29:13;;;;;;;4.13;1.10;;;13.90;99.90;;;;;;5038569;28;20026;-66
2023/09/24 06:31:39;;;;;;;3.45;1.30;;;14.00;99.90;;;;;;5038508;28;20024;-66
2023/09/24 06:34:05;;;;;;;2.38;1.15;;;14.00;99.90;;;;;;5038383;28;20390;-66
2023/09/24 06:36:31;;;;;;;3.72;1.20;;;13.90;99.90;;;;;;5038395;28;20026;-66
2023/09/24 06:38:56;;;;;;;3.53;1.17;;;13.90;99.90;;;;;;5038322;28;20026;-66
2023/09/24 06:41:22;;;;;;;2.95;1.38;;;13.90;99.90;;;;;;5037499;28;20025;-66
2023/09/24 06:43:48;;;;;;;3.45;1.30;;;13.90;99.90;;;;;;5063729;28;20045;-66
2023/09/24 06:46:13;;;;;;;2.47;0.98;;;13.90;99.90;;;;;;5045446;28;20065;-65
2023/09/24 06:48:39;;;;;;;3.05;1.17;;;13.90;99.90;;;;;;5036568;28;20040;-64
2023/09/24 06:51:07;;;;;;;3.13;1.17;;;13.90;99.90;;;;;;5038150;28;20049;-65
2023/09/24 06:53:32;;;;;;;3.28;1.10;;;13.90;99.90;;;;;;5038372;28;20052;-65
2023/09/24 06:55:58;;;;;;;4.40;1.30;;;14.00;99.90;;;;;;5039817;28;20492;-65
2023/09/24 06:58:24;;;;;;;4.63;1.23;;;14.00;99.90;;;;;;5036406;28;20049;-65
2023/09/24 07:00:49;;;;;;;2.63;1.20;;;14.00;99.90;;;;;;5037898;28;20040;-65
2023/09/24 07:03:15;;;;;;;4.80;1.30;;;14.10;99.90;;;;;;5037737;28;20119;-65
2023/09/24 07:05:41;;;;;;;3.22;1.30;;;14.10;99.90;;;;;;5038054;28;20034;-65
2023/09/24 07:08:06;;;;;;;2.95;1.20;;;14.10;99.90;;;;;;5036437;28;20029;-65
2023/09/24 07:10:32;;;;;;;2.83;1.30;;;14.10;99.90;;;;;;5037684;28;20100;-65
2023/09/24 07:12:58;;;;;;;3.10;1.30;;;14.20;99.90;;;;;;5037531;28;20014;-65
2023/09/24 07:15:23;;;;;;;3.42;1.20;;;14.20;99.90;;;;;;5046954;28;20021;-65
2023/09/24 07:17:49;;;;;;;3.45;1.30;;;14.30;99.90;;;;;;5037989;28;20108;-65
2023/09/24 07:20:15;;;;;;;2.88;1.30;;;14.30;99.90;;;;;;5037461;28;20032;-65
2023/09/24 07:22:40;;;;;;;2.17;1.23;;;14.40;99.90;;;;;;5037659;28;20506;-65
2023/09/24 07:25:06;;;;;;;4.95;1.27;;;14.40;99.90;;;;;;5037215;28;20071;-65
2023/09/24 07:27:32;;;;;;;3.47;1.20;;;14.50;99.90;;;;;;5037273;28;20108;-64
2023/09/24 07:29:59;;;;;;;4.13;1.20;;;14.50;99.90;;;;;;5036900;28;20094;-65
2023/09/24 07:32:24;;;;;;;3.05;1.15;;;14.50;99.90;;;;;;5037258;28;20022;-65
2023/09/24 07:34:50;;;;;;;3.92;1.50;;;14.60;99.90;;;;;;5037168;28;20026;-65
2023/09/24 07:37:16;;;;;;;3.60;1.27;;;14.60;99.90;;;;;;5036691;28;20386;-65
2023/09/24 07:39:42;;;;;;;3.80;1.30;;;14.70;99.90;;;;;;5036695;28;20036;-65
2023/09/24 07:42:08;;;;;;;3.42;1.20;;;14.80;99.90;;;;;;5036591;28;20033;-65
2023/09/24 07:44:33;;;;;;;2.92;1.38;;;14.80;99.90;;;;;;5036522;28;20030;-65
2023/09/24 07:46:59;;;;;;;3.30;1.20;;;14.90;99.90;;;;;;5036728;28;20033;-65
2023/09/24 07:49:25;;;;;;;3.90;1.23;;;14.90;99.90;;;;;;5036899;28;20025;-65
2023/09/24 07:51:50;;;;;;;3.58;1.40;;;15.00;99.90;;;;;;5035661;28;20031;-67
2023/09/24 07:54:17;;;;;;;3.30;1.23;;;15.10;99.90;;;;;;5037356;28;20037;-66
2023/09/24 07:56:43;;;;;;;3.67;1.30;;;15.10;99.90;;;;;;5035487;28;20021;-66
2023/09/24 07:59:10;;;;;;;2.92;1.20;;;15.20;99.90;;;;;;5036758;28;20040;-65
2023/09/24 08:01:36;;;;;;;3.20;1.17;;;15.30;99.90;;;;;;5036609;28;20026;-65
2023/09/24 08:04:01;;;;;;;3.30;1.10;;;15.30;99.90;;;;;;5036753;28;20026;-66
2023/09/24 08:06:28;;;;;;;3.85;1.15;;;15.40;99.90;;;;;;5036600;28;20028;-65
2023/09/24 08:08:55;;;;;;;3.25;1.30;;;15.40;99.90;;;;;;5036426;28;20074;-65
2023/09/24 08:11:21;;;;;;;2.83;1.05;;;15.40;99.90;;;;;;5036901;28;20025;-65
2023/09/24 08:13:47;;;;;;;3.40;1.13;;;15.50;99.90;;;;;;5036813;28;20816;-66
2023/09/24 08:16:13;;;;;;;3.38;1.33;;;15.60;99.90;;;;;;5036493;28;20026;-65
2023/09/24 08:18:39;;;;;;;3.75;1.20;;;15.70;99.90;;;;;;5036434;28;20053;-65
2023/09/24 08:21:05;;;;;;;2.55;1.08;;;15.80;99.90;;;;;;5036580;28;20071;-66
2023/09/24 08:23:31;;;;;;;3.38;1.20;;;15.80;99.90;;;;;;5036659;28;20037;-65
2023/09/24 08:25:57;;;;;;;5.60;1.38;;;16.00;99.90;;;;;;5036414;28;20490;-65
2023/09/24 08:28:23;;;;;;;4.35;1.25;;;16.10;99.90;;;;;;5036127;28;20041;-65
2023/09/24 08:30:48;;;;;;;4.97;1.10;;;16.10;99.90;;;;;;5036272;28;20017;-65
2023/09/24 08:33:14;;;;;;;3.10;1.20;;;16.00;99.90;;;;;;5036299;28;20032;-65
2023/09/24 08:35:40;;;;;;;2.83;1.23;;;16.00;99.90;;;;;;5036736;28;20018;-65
2023/09/24 08:38:06;;;;;;;3.47;1.20;;;16.10;99.90;;;;;;5036463;28;20080;-65
2023/09/24 08:40:32;;;;;;;3.75;1.10;;;16.20;99.90;;;;;;5036440;28;20025;-65
2023/09/24 08:42:58;;;;;;;3.45;1.30;;;16.40;99.90;;;;;;5038028;28;20490;-65
2023/09/24 08:45:28;;;;;;;2.63;1.20;;;16.60;99.90;;;;;;5040543;28;20053;-65
2023/09/24 08:47:54;;;;;;;5.10;1.40;;;16.70;99.90;;;;;;5038951;28;20030;-65
2023/09/24 08:50:20;;;;;;;3.20;1.25;;;16.90;99.90;;;;;;5039704;28;20052;-66
2023/09/24 08:52:46;;;;;;;3.20;1.40;;;17.00;99.90;;;;;;5038950;28;20029;-65
2023/09/24 08:55:13;;;;;;;2.00;0.90;;;17.20;99.90;;;;;;5042537;28;20020;-65
2023/09/24 08:57:42;;;;;;;2.33;0.93;;;17.20;99.90;;;;;;5039820;28;20054;-65
2023/09/24 09:00:11;;;;;;;3.50;1.10;;;17.20;99.90;;;;;;5040143;28;20104;-65
2023/09/24 09:02:41;;;;;;;2.92;1.05;;;17.30;99.90;;;;;;5039641;28;20040;-65
2023/09/24 09:05:21;;;;;;;2.22;0.90;;;17.40;99.90;;;;;;5039983;28;20028;-65
2023/09/24 09:07:55;;;;;;;3.22;1.10;;;17.40;99.90;;;;;;5039631;28;20595;-65
2023/09/24 09:10:29;;;;;;;5.07;1.38;;;17.50;99.90;;;;;;5039497;28;20030;-64
2023/09/24 09:13:01;;;;;;;;;;;17.50;99.90;;;;;;5040430;28;20021;-64
2023/09/24 09:15:27;;;;;;;2.63;1.00;;;17.50;99.90;;;;;;5049429;28;19912;-63
2023/09/24 09:17:52;;;;;;;3.45;1.38;;;17.50;99.90;;;;;;5040146;28;20029;-65
2023/09/24 09:20:18;;;;;;;5.15;1.30;;;17.40;99.90;;;;;;5039005;28;20120;-65
2023/09/24 09:22:47;;;;;;;4.45;1.65;;;17.40;99.90;;;;;;5038996;28;20076;-65
2023/09/24 09:25:14;;;;;;;1.73;1.05;;;17.40;99.90;;;;;;5034940;28;20030;-65
2023/09/24 09:27:43;;;;;;;2.83;1.30;;;17.50;99.90;;;;;;5039291;28;20059;-65
2023/09/24 09:30:15;;;;;;;3.72;1.58;;;17.50;99.90;;;;;;5039336;28;20033;-65
2023/09/24 09:32:42;;;;;;;4.93;1.65;;;17.60;99.90;;;;;;5039740;28;20029;-65
2023/09/24 09:35:08;;;;;;;3.95;1.48;;;17.60;99.90;;;;;;5039441;28;20025;-65
2023/09/24 09:37:34;;;;;;;4.50;1.33;;;17.70;99.90;;;;;;5039575;28;20082;-65
2023/09/24 09:39:59;;;;;;;3.72;1.10;;;17.70;99.90;;;;;;5038982;28;20029;-65
2023/09/24 09:42:33;;;;;;;4.07;1.50;;;17.70;99.90;;;;;;5039233;28;20096;-65
2023/09/24 09:45:08;;;;;;;3.97;1.25;;;17.80;99.90;;;;;;5037884;28;20033;-65
2023/09/24 09:47:37;;;;;;;3.67;1.55;;;17.80;99.90;;;;;;5038862;28;20022;-65
2023/09/24 09:50:04;;;;;;;5.55;1.45;;;17.90;99.90;;;;;;5038958;28;20088;-65
2023/09/24 09:52:37;;;;;;;4.70;1.45;;;17.90;99.90;;;;;;5039173;28;20021;-65
2023/09/24 09:55:05;;;;;;;3.38;1.50;;;18.00;99.90;;;;;;5041322;28;20051;-65
2023/09/24 09:57:33;;;;;;;3.20;1.30;;;18.00;99.90;;;;;;5038675;28;20037;-65
2023/09/24 10:00:00;;;;;;;3.97;1.23;;;18.00;99.90;;;;;;5038851;28;20035;-66
2023/09/24 10:02:29;;;;;;;1.60;1.00;;;18.00;99.90;;;;;;5039033;28;20032;-65
2023/09/24 10:04:57;;;;;;;3.75;1.30;;;18.20;99.90;;;;;;5039009;28;20391;-65
2023/09/24 10:07:23;;;;;;;2.55;1.20;;;18.30;99.90;;;;;;5039076;28;20100;-65
2023/09/24 10:09:50;;;;;;;3.22;1.20;;;18.40;99.90;;;;;;5038686;28;20494;-66
2023/09/24 10:12:36;;;;;;;3.38;1.23;;;18.50;99.90;;;;;;5038425;28;20025;-65
2023/09/24 10:15:25;;;;;;;3.28;1.13;;;18.50;99.90;;;;;;5045670;28;20017;-65
2023/09/24 10:18:09;;;;;;;2.55;1.05;;;18.60;99.90;;;;;;5026159;28;20025;-65
2023/09/24 10:20:50;;;;;;;4.03;1.30;;;18.80;99.90;;;;;;5036625;28;20017;-65
2023/09/24 10:23:28;;;;;;;2.75;1.17;;;18.70;99.90;;;;;;5036265;28;20410;-65
2023/09/24 10:25:54;;;;;;;3.30;1.08;;;18.70;99.90;;;;;;5037595;28;20025;-65
2023/09/24 10:28:19;;;;;;;3.05;1.23;;;18.70;99.90;;;;;;5038400;28;20052;-65
2023/09/24 10:31:03;;;;;;;3.72;0.98;;;18.80;99.90;;;;;;5038544;28;20017;-65
2023/09/24 10:33:56;;;;;;;2.53;1.08;;;18.90;99.90;;;;;;5033737;28;20017;-65
2023/09/24 10:36:29;;;;;;;2.90;1.20;;;19.00;99.90;;;;;;5037350;28;20569;-65
2023/09/24 10:39:03;;;;;;;2.85;1.40;;;19.10;99.90;;;;;;5035514;28;20272;-65
2023/09/24 10:41:28;;;;;;;3.30;1.08;;;19.10;99.90;;;;;;5037608;28;20033;-65
2023/09/24 10:44:22;;;;;;;3.80;1.17;;;19.20;99.10;;;;;;5038162;28;20033;-65
2023/09/24 10:46:48;;;;;;;3.70;0.90;;;19.10;99.90;;;;;;5038073;28;20038;-65
2023/09/24 10:49:21;;;;;;;1.83;1.00;;;19.10;99.60;;;;;;5037745;28;20033;-65
2023/09/24 10:51:58;;;;;;;3.90;1.10;;;19.20;99.90;;;;;;5037400;28;20068;-65
2023/09/24 10:54:24;;;;;;;2.63;1.10;;;19.30;99.90;;;;;;5039952;28;20021;-65
2023/09/24 10:56:49;;;;;;;1.80;0.90;;;19.30;98.90;;;;;;5037340;28;20507;-65
2023/09/24 10:59:16;;;;;;;2.47;1.00;;;19.40;98.90;;;;;;5037511;28;20037;-65
2023/09/24 11:01:42;;;;;;;2.92;1.05;;;19.40;98.40;;;;;;5037505;28;20037;-64
2023/09/24 11:04:09;;;;;;;1.50;0.73;;;19.50;97.90;;;;;;5037788;28;20025;-64
2023/09/24 11:06:35;;;;;;;1.90;0.60;;;19.50;97.50;;;;;;5037305;28;20052;-64
2023/09/24 11:09:20;;;;;;;2.13;0.80;;;19.50;96.90;;;;;;5037124;28;20105;-64
2023/09/24 11:11:46;;;;;;;2.45;0.73;;;19.60;99.10;;;;;;5037030;28;20060;-64
2023/09/24 11:14:23;;;;;;;2.38;0.90;;;19.70;97.00;;;;;;5037286;28;20029;-65
2023/09/24 11:16:50;;;;;;;1.92;0.93;;;19.70;97.10;;;;;;5046054;28;20026;-65
2023/09/24 11:19:42;;;;;;;2.45;0.82;;;19.70;96.40;;;;;;5037569;28;20474;-65
2023/09/24 11:22:18;;;;;;;3.30;1.25;;;19.80;98.10;;;;;;5036617;28;20035;-65
2023/09/24 11:24:44;;;;;;;3.88;0.95;;;19.80;97.50;;;;;;5037373;28;20021;-65
2023/09/24 11:27:10;;;;;;;2.60;0.80;;;19.80;94.80;;;;;;5036603;28;20056;-65
2023/09/24 11:29:35;;;;;;;3.47;1.50;;;19.80;95.40;;;;;;5037281;28;20067;-67
2023/09/24 11:32:02;;;;;;;2.60;1.60;;;19.90;96.30;;;;;;5037353;28;20022;-67
2023/09/24 11:34:29;;;;;;;3.42;1.10;;;20.00;96.10;;;;;;5037471;28;20097;-67
2023/09/24 11:36:58;;;;;;;3.42;1.52;;;20.10;96.60;;;;;;5037264;28;20018;-67
2023/09/24 11:39:24;;;;;;;3.63;1.70;;;20.10;95.10;;;;;;5036031;28;20041;-65
2023/09/24 11:41:50;;;;;;;3.50;1.45;;;20.10;94.90;;;;;;5036746;28;20018;-65
2023/09/24 11:44:17;;;;;;;3.33;1.52;;;20.10;94.50;;;;;;5037137;28;20022;-65
2023/09/24 11:46:46;;;;;;;2.58;1.20;;;20.10;94.70;;;;;;5037000;28;20021;-65
2023/09/24 11:49:11;;;;;;;4.05;1.35;;;20.30;96.00;;;;;;5037086;28;20100;-65
2023/09/24 11:51:37;;;;;;;2.45;1.05;;;20.40;94.50;;;;;;5037012;28;20045;-65
2023/09/24 11:54:03;;;;;;;3.13;0.90;;;20.40;93.20;;;;;;5037609;28;20079;-65
2023/09/24 11:56:31;;;;;;;3.35;1.13;;;20.40;94.00;;;;;;5038033;28;20112;-65
2023/09/24 11:58:58;;;;;;;2.97;1.30;;;20.50;94.10;;;;;;5037108;28;20465;-64
2023/09/24 12:01:24;;;;;;;3.50;1.17;;;20.60;95.00;;;;;;5036862;28;20025;-65
2023/09/24 12:03:50;;;;;;;1.92;0.90;;;20.60;93.80;;;;;;5037059;28;20036;-65
2023/09/24 12:06:16;;;;;;;1.88;0.93;;;20.60;91.90;;;;;;5036798;28;20025;-64
2023/09/24 12:08:41;;;;;;;2.05;0.88;;;20.50;92.00;;;;;;5036882;28;20075;-64
2023/09/24 12:11:07;;;;;;;4.13;1.10;;;20.60;92.10;;;;;;5035196;28;20033;-64
2023/09/24 12:13:33;;;;;;;1.27;0.80;;;20.60;91.40;;;;;;5037165;28;20443;-64
2023/09/24 12:15:58;;;;;;;2.88;1.08;;;20.60;91.50;;;;;;5046127;28;20018;-64
2023/09/24 12:18:24;;;;;;;3.92;1.13;;;20.60;90.70;;;;;;5040921;28;20112;-64
2023/09/24 12:20:49;;;;;;;2.47;1.00;;;20.50;92.30;;;;;;5040763;28;20394;-66
2023/09/24 12:23:15;;;;;;;2.83;0.88;;;20.50;91.50;;;;;;5040892;28;20029;-64
2023/09/24 12:25:43;;;;;;;2.92;0.70;;;20.40;91.50;;;;;;5040427;28;20605;-65
2023/09/24 12:28:11;;;;;;;2.50;0.90;;;20.40;92.60;;;;;;5040444;28;20034;-65
2023/09/24 12:30:38;;;;;;;1.95;0.80;;;20.50;92.00;;;;;;5040428;28;20044;-65
2023/09/24 12:33:04;;;;;;;1.95;0.85;;;20.60;92.50;;;;;;5040640;28;20078;-65
2023/09/24 12:35:30;;;;;;;2.78;0.73;;;20.60;90.90;;;;;;5040747;28;20017;-65
2023/09/24 12:37:56;;;;;;;3.00;1.20;;;20.60;91.00;;;;;;5040595;28;20021;-65
2023/09/24 12:40:22;;;;;;;1.65;0.82;;;20.60;91.00;;;;;;5040430;28;20032;-65
2023/09/24 12:42:48;;;;;;;2.97;0.80;;;20.60;90.70;;;;;;5040274;28;20032;-65
2023/09/24 12:45:14;;;;;;;2.10;0.85;;;20.60;90.20;;;;;;5040370;28;20060;-65
2023/09/24 12:47:40;;;;;;;2.53;1.08;;;20.60;90.80;;;;;;5040333;28;20029;-65
2023/09/24 12:50:08;;;;;;;3.10;0.98;;;20.70;90.10;;;;;;5040140;28;20076;-65
2023/09/24 12:52:42;;;;;;;1.75;0.75;;;20.70;91.10;;;;;;5040503;28;20025;-65